Keystone, Colorado
Current Conditions -  °F | °C
As of 3:57 AM on Monday 20 Oct 2014 (Local Time) from KCCU Reporting Station
Clear Clear  
Wind Chill: 29°   Ceiling: Unl
Heat Index: 39°   Visibility: 10mi
Dew Point: 27°   Wind: 21mph
Humidity: 61%   Direction: 170°S
Pressure: 30.47"   Gusts: NA
Location:  39.6522°N, 106.121°W
Report Text: KCCU 200957Z AUTO 17018KT 10SM CLR 04/M03 A3047 RMK AO2
Loading
Personal Weather Stations






























Interactive Weather Map
Tropical Storm Tracking
New forecast layout! Learn more

10-Day Weather Forecast

Advertisements
Track Severe Weather on mobile